sensor_id;sensor_type;location;lat;lon;timestamp;pressure;altitude;pressure_sealevel;temperature;humidity
48792;BME280;34587;48.816;9.420;2023-05-10T04:15:50;98276.31;;;12.34;100.00
48792;BME280;34587;48.816;9.420;2023-05-10T04:18:16;98282.34;;;12.35;100.00
48792;BME280;34587;48.816;9.420;2023-05-10T04:20:42;98279.53;;;12.41;100.00
48792;BME280;34587;48.816;9.420;2023-05-10T04:23:07;98293.50;;;12.39;100.00
48792;BME280;34587;48.816;9.420;2023-05-10T04:25:34;98280.22;;;12.46;100.00
48792;BME280;34587;48.816;9.420;2023-05-10T04:28:00;98288.72;;;12.51;100.00
48792;BME280;34587;48.816;9.420;2023-05-10T04:30:25;98286.34;;;12.45;100.00
48792;BME280;34587;48.816;9.420;2023-05-10T04:32:53;98293.03;;;12.52;100.00
48792;BME280;34587;48.816;9.420;2023-05-10T04:35:18;98291.28;;;12.53;100.00
48792;BME280;34587;48.816;9.420;2023-05-10T04:37:44;98299.31;;;12.45;100.00
48792;BME280;34587;48.816;9.420;2023-05-10T04:40:09;98289.69;;;12.49;100.00
48792;BME280;34587;48.816;9.420;2023-05-10T04:42:35;98289.72;;;12.47;100.00
48792;BME280;34587;48.816;9.420;2023-05-10T04:45:00;98291.13;;;12.57;100.00
48792;BME280;34587;48.816;9.420;2023-05-10T04:47:25;98293.28;;;12.70;100.00
48792;BME280;34587;48.816;9.420;2023-05-10T04:49:50;98295.84;;;12.71;100.00
48792;BME280;34587;48.816;9.420;2023-05-10T04:52:16;98295.00;;;12.71;100.00
48792;BME280;34587;48.816;9.420;2023-05-10T04:54:42;98296.00;;;12.67;100.00
48792;BME280;34587;48.816;9.420;2023-05-10T04:57:08;98301.91;;;12.72;100.00
48792;BME280;34587;48.816;9.420;2023-05-10T04:59:35;98300.72;;;12.80;100.00
48792;BME280;34587;48.816;9.420;2023-05-10T05:02:01;98306.50;;;12.89;100.00
48792;BME280;34587;48.816;9.420;2023-05-10T05:04:26;98295.53;;;13.05;100.00
48792;BME280;34587;48.816;9.420;2023-05-10T05:06:51;98306.56;;;13.12;100.00
48792;BME280;34587;48.816;9.420;2023-05-10T05:09:16;98306.81;;;13.04;100.00
48792;BME280;34587;48.816;9.420;2023-05-10T05:11:42;98304.78;;;13.12;100.00
48792;BME280;34587;48.816;9.420;2023-05-10T05:14:07;98306.13;;;12.99;100.00
48792;BME280;34587;48.816;9.420;2023-05-10T05:16:32;98314.84;;;12.98;100.00
48792;BME280;34587;48.816;9.420;2023-05-10T05:18:57;98319.50;;;13.13;100.00
48792;BME280;34587;48.816;9.420;2023-05-10T05:21:24;98314.63;;;13.29;100.00
48792;BME280;34587;48.816;9.420;2023-05-10T05:23:51;98315.59;;;13.27;100.00
48792;BME280;34587;48.816;9.420;2023-05-10T05:26:17;98313.34;;;13.41;100.00
48792;BME280;34587;48.816;9.420;2023-05-10T05:28:42;98312.66;;;13.59;100.00
48792;BME280;34587;48.816;9.420;2023-05-10T05:31:07;98315.69;;;13.71;100.00
48792;BME280;34587;48.816;9.420;2023-05-10T05:33:33;98308.13;;;13.65;100.00
48792;BME280;34587;48.816;9.420;2023-05-10T05:36:03;98323.44;;;13.72;100.00
48792;BME280;34587;48.816;9.420;2023-05-10T05:38:28;98317.84;;;13.83;100.00
48792;BME280;34587;48.816;9.420;2023-05-10T05:40:54;98322.59;;;13.72;100.00
48792;BME280;34587;48.816;9.420;2023-05-10T05:43:19;98322.00;;;13.87;100.00
48792;BME280;34587;48.816;9.420;2023-05-10T05:45:44;98322.25;;;13.81;100.00
48792;BME280;34587;48.816;9.420;2023-05-10T05:48:10;98323.94;;;13.82;100.00
48792;BME280;34587;48.816;9.420;2023-05-10T05:50:35;98321.16;;;13.86;100.00
48792;BME280;34587;48.816;9.420;2023-05-10T05:53:00;98332.59;;;13.82;100.00
48792;BME280;34587;48.816;9.420;2023-05-10T05:55:26;98325.16;;;13.95;100.00
48792;BME280;34587;48.816;9.420;2023-05-10T05:57:51;98335.22;;;14.04;100.00
48792;BME280;34587;48.816;9.420;2023-05-10T06:00:16;98326.63;;;14.02;100.00
48792;BME280;34587;48.816;9.420;2023-05-10T06:02:42;98338.84;;;14.00;100.00
48792;BME280;34587;48.816;9.420;2023-05-10T06:05:08;98336.06;;;13.83;100.00
48792;BME280;34587;48.816;9.420;2023-05-10T06:07:33;98337.97;;;13.78;100.00
48792;BME280;34587;48.816;9.420;2023-05-10T06:09:58;98336.06;;;13.83;100.00
48792;BME280;34587;48.816;9.420;2023-05-10T06:12:24;98332.75;;;13.78;100.00
48792;BME280;34587;48.816;9.420;2023-05-10T06:14:49;98346.25;;;13.66;100.00
48792;BME280;34587;48.816;9.420;2023-05-10T06:17:14;98347.16;;;13.65;100.00
48792;BME280;34587;48.816;9.420;2023-05-10T06:19:40;98345.59;;;13.60;100.00
48792;BME280;34587;48.816;9.420;2023-05-10T06:22:05;98352.25;;;13.68;100.00
48792;BME280;34587;48.816;9.420;2023-05-10T06:24:30;98350.31;;;13.73;100.00
48792;BME280;34587;48.816;9.420;2023-05-10T06:26:55;98348.53;;;13.75;100.00
48792;BME280;34587;48.816;9.420;2023-05-10T06:29:21;98357.00;;;13.80;100.00
48792;BME280;34587;48.816;9.420;2023-05-10T06:31:46;98351.69;;;13.83;100.00
48792;BME280;34587;48.816;9.420;2023-05-10T06:34:12;98355.97;;;14.07;100.00
48792;BME280;34587;48.816;9.420;2023-05-10T06:36:38;98355.09;;;14.07;100.00
48792;BME280;34587;48.816;9.420;2023-05-10T06:39:03;98351.72;;;14.27;100.00
48792;BME280;34587;48.816;9.420;2023-05-10T06:41:29;98365.63;;;14.04;99.64
48792;BME280;34587;48.816;9.420;2023-05-10T06:43:54;98355.72;;;14.13;100.00
48792;BME280;34587;48.816;9.420;2023-05-10T06:46:19;98360.50;;;14.02;100.00
48792;BME280;34587;48.816;9.420;2023-05-10T06:48:45;98354.38;;;14.03;100.00
48792;BME280;34587;48.816;9.420;2023-05-10T06:51:10;98354.19;;;14.08;100.00
48792;BME280;34587;48.816;9.420;2023-05-10T06:53:35;98358.09;;;13.96;100.00
48792;BME280;34587;48.816;9.420;2023-05-10T06:56:01;98365.31;;;14.11;100.00
48792;BME280;34587;48.816;9.420;2023-05-10T06:58:28;98364.69;;;14.28;100.00
48792;BME280;34587;48.816;9.420;2023-05-10T07:00:53;98365.59;;;14.49;100.00
48792;BME280;34587;48.816;9.420;2023-05-10T07:03:18;98369.63;;;14.78;98.39
48792;BME280;34587;48.816;9.420;2023-05-10T07:05:44;98361.09;;;14.95;95.96
48792;BME280;34587;48.816;9.420;2023-05-10T07:08:09;98359.66;;;14.88;95.53
48792;BME280;34587;48.816;9.420;2023-05-10T07:10:34;98360.84;;;15.01;94.24
48792;BME280;34587;48.816;9.420;2023-05-10T07:12:59;98360.97;;;14.98;92.91
48792;BME280;34587;48.816;9.420;2023-05-10T07:15:26;98364.22;;;15.03;93.56
48792;BME280;34587;48.816;9.420;2023-05-10T07:17:51;98363.84;;;15.33;93.24
48792;BME280;34587;48.816;9.420;2023-05-10T07:20:17;98364.56;;;15.55;90.52
48792;BME280;34587;48.816;9.420;2023-05-10T07:22:42;98358.97;;;15.44;90.41
48792;BME280;34587;48.816;9.420;2023-05-10T07:25:09;98364.38;;;15.00;90.36
48792;BME280;34587;48.816;9.420;2023-05-10T07:27:34;98365.22;;;15.01;91.87
48792;BME280;34587;48.816;9.420;2023-05-10T07:29:59;98365.78;;;15.07;92.57
48792;BME280;34587;48.816;9.420;2023-05-10T07:32:25;98371.28;;;15.01;90.95
48792;BME280;34587;48.816;9.420;2023-05-10T07:34:51;98373.53;;;14.88;89.82
48792;BME280;34587;48.816;9.420;2023-05-10T07:37:16;98375.06;;;14.94;89.86
48792;BME280;34587;48.816;9.420;2023-05-10T07:39:42;98380.25;;;15.35;89.13
48792;BME280;34587;48.816;9.420;2023-05-10T07:42:07;98370.81;;;15.51;86.33
48792;BME280;34587;48.816;9.420;2023-05-10T07:44:33;98371.72;;;15.71;86.06
48792;BME280;34587;48.816;9.420;2023-05-10T07:46:58;98375.19;;;15.90;85.17
48792;BME280;34587;48.816;9.420;2023-05-10T07:49:23;98374.56;;;16.23;82.18
48792;BME280;34587;48.816;9.420;2023-05-10T07:51:49;98379.28;;;16.14;81.17
48792;BME280;34587;48.816;9.420;2023-05-10T07:54:15;98379.22;;;16.16;81.73
48792;BME280;34587;48.816;9.420;2023-05-10T07:56:40;98384.00;;;16.61;81.76
48792;BME280;34587;48.816;9.420;2023-05-10T07:59:14;98378.91;;;16.41;80.31
48792;BME280;34587;48.816;9.420;2023-05-10T08:01:40;98384.50;;;16.33;80.78
48792;BME280;34587;48.816;9.420;2023-05-10T08:04:05;98378.38;;;16.34;80.63
48792;BME280;34587;48.816;9.420;2023-05-10T08:06:30;98370.44;;;16.53;81.46
48792;BME280;34587;48.816;9.420;2023-05-10T08:08:56;98384.13;;;16.41;80.88
48792;BME280;34587;48.816;9.420;2023-05-10T08:11:21;98380.59;;;16.42;80.67
48792;BME280;34587;48.816;9.420;2023-05-10T08:13:47;98383.22;;;16.23;81.57
48792;BME280;34587;48.816;9.420;2023-05-10T08:16:13;98384.47;;;15.78;84.25
48792;BME280;34587;48.816;9.420;2023-05-10T08:18:39;98380.91;;;16.17;82.75
48792;BME280;34587;48.816;9.420;2023-05-10T08:21:05;98383.84;;;16.47;81.24
48792;BME280;34587;48.816;9.420;2023-05-10T08:23:31;98381.09;;;16.50;81.49
48792;BME280;34587;48.816;9.420;2023-05-10T08:25:56;98379.19;;;16.54;80.83
48792;BME280;34587;48.816;9.420;2023-05-10T08:28:22;98383.31;;;16.22;78.49
48792;BME280;34587;48.816;9.420;2023-05-10T08:30:47;98380.47;;;16.45;79.12
48792;BME280;34587;48.816;9.420;2023-05-10T08:33:12;98386.22;;;15.97;80.29
48792;BME280;34587;48.816;9.420;2023-05-10T08:35:38;98382.91;;;15.93;78.81
48792;BME280;34587;48.816;9.420;2023-05-10T08:38:03;98397.19;;;15.86;80.49
48792;BME280;34587;48.816;9.420;2023-05-10T08:40:28;98386.09;;;15.60;81.60
48792;BME280;34587;48.816;9.420;2023-05-10T08:43:07;98388.84;;;15.37;81.08
48792;BME280;34587;48.816;9.420;2023-05-10T08:45:37;98393.34;;;15.14;81.05
48792;BME280;34587;48.816;9.420;2023-05-10T08:48:05;98398.00;;;14.86;83.69
48792;BME280;34587;48.816;9.420;2023-05-10T08:50:32;98399.59;;;14.90;83.00
48792;BME280;34587;48.816;9.420;2023-05-10T08:53:00;98401.16;;;14.94;82.07
48792;BME280;34587;48.816;9.420;2023-05-10T08:55:27;98408.47;;;15.06;81.73
48792;BME280;34587;48.816;9.420;2023-05-10T08:57:53;98403.13;;;15.09;81.64
48792;BME280;34587;48.816;9.420;2023-05-10T09:00:18;98406.88;;;15.23;79.76
48792;BME280;34587;48.816;9.420;2023-05-10T09:02:44;98407.59;;;15.47;77.79
48792;BME280;34587;48.816;9.420;2023-05-10T09:05:11;98401.31;;;15.90;77.19
48792;BME280;34587;48.816;9.420;2023-05-10T09:07:36;98407.13;;;15.57;75.31
48792;BME280;34587;48.816;9.420;2023-05-10T09:10:04;98411.34;;;15.60;76.38
48792;BME280;34587;48.816;9.420;2023-05-10T09:12:30;98421.19;;;15.34;76.19
48792;BME280;34587;48.816;9.420;2023-05-10T09:14:55;98410.63;;;15.56;74.35
48792;BME280;34587;48.816;9.420;2023-05-10T09:17:23;98412.97;;;15.23;76.21
48792;BME280;34587;48.816;9.420;2023-05-10T09:19:49;98420.34;;;15.13;73.98
48792;BME280;34587;48.816;9.420;2023-05-10T09:22:14;98426.00;;;15.03;74.46
48792;BME280;34587;48.816;9.420;2023-05-10T09:24:42;98416.34;;;15.25;74.58
48792;BME280;34587;48.816;9.420;2023-05-10T09:27:10;98420.06;;;15.40;73.56
48792;BME280;34587;48.816;9.420;2023-05-10T09:29:41;98421.19;;;15.94;71.64
48792;BME280;34587;48.816;9.420;2023-05-10T09:32:06;98420.44;;;16.47;70.83
48792;BME280;34587;48.816;9.420;2023-05-10T09:34:32;98422.75;;;16.72;68.48
48792;BME280;34587;48.816;9.420;2023-05-10T09:37:01;98415.88;;;17.73;65.67
48792;BME280;34587;48.816;9.420;2023-05-10T09:39:32;98416.59;;;17.93;64.17
48792;BME280;34587;48.816;9.420;2023-05-10T09:42:07;98411.56;;;18.69;61.21
48792;BME280;34587;48.816;9.420;2023-05-10T09:44:34;98424.72;;;19.43;59.57
48792;BME280;34587;48.816;9.420;2023-05-10T09:47:00;98418.00;;;19.23;59.72
48792;BME280;34587;48.816;9.420;2023-05-10T09:49:26;98411.34;;;17.77;62.46
48792;BME280;34587;48.816;9.420;2023-05-10T09:52:03;98425.47;;;17.75;62.63
48792;BME280;34587;48.816;9.420;2023-05-10T09:54:29;98417.56;;;17.24;65.04
48792;BME280;34587;48.816;9.420;2023-05-10T09:56:54;98426.72;;;17.33;64.12
48792;BME280;34587;48.816;9.420;2023-05-10T09:59:20;98418.09;;;17.31;63.02
48792;BME280;34587;48.816;9.420;2023-05-10T10:01:52;98423.75;;;16.69;64.42
48792;BME280;34587;48.816;9.420;2023-05-10T10:04:17;98416.09;;;17.36;64.53
48792;BME280;34587;48.816;9.420;2023-05-10T10:06:42;98425.31;;;17.26;63.00
48792;BME280;34587;48.816;9.420;2023-05-10T10:09:08;98429.78;;;17.06;65.02
48792;BME280;34587;48.816;9.420;2023-05-10T10:11:35;98418.69;;;17.53;65.18
48792;BME280;34587;48.816;9.420;2023-05-10T10:14:01;98414.44;;;18.01;62.72
48792;BME280;34587;48.816;9.420;2023-05-10T10:16:29;98413.66;;;18.78;60.46
48792;BME280;34587;48.816;9.420;2023-05-10T10:18:54;98416.44;;;18.91;59.46
48792;BME280;34587;48.816;9.420;2023-05-10T10:21:20;98420.00;;;18.11;61.77
48792;BME280;34587;48.816;9.420;2023-05-10T10:23:46;98420.72;;;18.14;60.79
48792;BME280;34587;48.816;9.420;2023-05-10T10:26:11;98419.03;;;17.63;61.51
48792;BME280;34587;48.816;9.420;2023-05-10T10:28:51;98419.88;;;17.13;65.36
48792;BME280;34587;48.816;9.420;2023-05-10T10:31:41;98425.09;;;16.59;66.38
48792;BME280;34587;48.816;9.420;2023-05-10T10:34:10;98427.09;;;16.54;66.95
48792;BME280;34587;48.816;9.420;2023-05-10T10:36:46;98425.56;;;16.12;69.35
48792;BME280;34587;48.816;9.420;2023-05-10T10:39:12;98429.41;;;16.05;69.21
48792;BME280;34587;48.816;9.420;2023-05-10T10:41:40;98439.81;;;15.67;71.77
48792;BME280;34587;48.816;9.420;2023-05-10T10:52:32;98426.69;;;15.88;68.65
48792;BME280;34587;48.816;9.420;2023-05-10T10:57:30;98433.03;;;16.39;69.99
48792;BME280;34587;48.816;9.420;2023-05-10T11:03:06;98435.00;;;16.34;67.20
48792;BME280;34587;48.816;9.420;2023-05-10T11:05:42;98437.56;;;16.35;66.66
48792;BME280;34587;48.816;9.420;2023-05-10T11:08:16;98436.88;;;16.32;67.03
48792;BME280;34587;48.816;9.420;2023-05-10T11:13:27;98431.06;;;16.44;67.55
48792;BME280;34587;48.816;9.420;2023-05-10T11:15:53;98435.72;;;16.00;67.51
48792;BME280;34587;48.816;9.420;2023-05-10T11:18:26;98436.13;;;15.90;67.80
48792;BME280;34587;48.816;9.420;2023-05-10T11:20:54;98430.78;;;16.12;65.87
48792;BME280;34587;48.816;9.420;2023-05-10T11:23:20;98433.53;;;15.90;64.24
48792;BME280;34587;48.816;9.420;2023-05-10T11:25:47;98431.63;;;16.13;65.43
48792;BME280;34587;48.816;9.420;2023-05-10T11:28:13;98426.97;;;16.19;64.64
48792;BME280;34587;48.816;9.420;2023-05-10T11:30:39;98432.75;;;16.45;65.35
48792;BME280;34587;48.816;9.420;2023-05-10T11:33:06;98431.06;;;16.44;64.00
48792;BME280;34587;48.816;9.420;2023-05-10T11:35:37;98437.56;;;15.98;64.16
48792;BME280;34587;48.816;9.420;2023-05-10T11:38:05;98442.59;;;16.40;64.22
48792;BME280;34587;48.816;9.420;2023-05-10T11:40:30;98445.75;;;15.90;65.38
48792;BME280;34587;48.816;9.420;2023-05-10T11:42:56;98439.81;;;16.24;66.40
48792;BME280;34587;48.816;9.420;2023-05-10T11:45:23;98442.66;;;16.19;65.65
48792;BME280;34587;48.816;9.420;2023-05-10T11:47:49;98441.78;;;16.00;65.57
48792;BME280;34587;48.816;9.420;2023-05-10T11:50:15;98456.19;;;15.90;65.82
48792;BME280;34587;48.816;9.420;2023-05-10T11:52:40;98455.94;;;15.96;66.66
48792;BME280;34587;48.816;9.420;2023-05-10T11:55:06;98449.97;;;15.74;66.41
48792;BME280;34587;48.816;9.420;2023-05-10T11:57:31;98454.63;;;15.67;67.73
48792;BME280;34587;48.816;9.420;2023-05-10T11:59:57;98454.66;;;15.65;68.61
48792;BME280;34587;48.816;9.420;2023-05-10T12:02:23;98458.50;;;15.57;69.19
48792;BME280;34587;48.816;9.420;2023-05-10T12:04:49;98461.34;;;15.52;68.12
48792;BME280;34587;48.816;9.420;2023-05-10T12:07:15;98459.00;;;15.66;67.86
48792;BME280;34587;48.816;9.420;2023-05-10T12:09:44;98454.78;;;15.83;68.10
48792;BME280;34587;48.816;9.420;2023-05-10T12:12:15;98462.34;;;15.89;64.78
48792;BME280;34587;48.816;9.420;2023-05-10T12:14:40;98446.91;;;16.22;63.67
48792;BME280;34587;48.816;9.420;2023-05-10T12:17:06;98466.56;;;16.31;62.95
48792;BME280;34587;48.816;9.420;2023-05-10T12:19:38;98474.06;;;15.99;62.11
48792;BME280;34587;48.816;9.420;2023-05-10T12:22:05;98477.38;;;15.84;62.47
48792;BME280;34587;48.816;9.420;2023-05-10T12:24:30;98480.88;;;16.03;61.80
48792;BME280;34587;48.816;9.420;2023-05-10T12:26:56;98478.78;;;16.11;62.53
48792;BME280;34587;48.816;9.420;2023-05-10T12:29:21;98476.38;;;16.26;61.89
48792;BME280;34587;48.816;9.420;2023-05-10T12:31:58;98490.06;;;15.73;61.49
48792;BME280;34587;48.816;9.420;2023-05-10T12:34:34;98494.28;;;15.75;62.32
48792;BME280;34587;48.816;9.420;2023-05-10T12:37:01;98497.44;;;15.83;62.56
48792;BME280;34587;48.816;9.420;2023-05-10T12:39:39;98503.34;;;15.46;63.54
48792;BME280;34587;48.816;9.420;2023-05-10T12:42:04;98505.31;;;15.61;66.06
48792;BME280;34587;48.816;9.420;2023-05-10T12:44:30;98500.16;;;16.19;66.44
48792;BME280;34587;48.816;9.420;2023-05-10T12:46:55;98501.13;;;15.98;64.82
48792;BME280;34587;48.816;9.420;2023-05-10T12:49:20;98500.78;;;15.87;63.11
48792;BME280;34587;48.816;9.420;2023-05-10T12:51:45;98504.72;;;16.35;61.17
48792;BME280;34587;48.816;9.420;2023-05-10T12:54:11;98505.03;;;16.08;61.66
48792;BME280;34587;48.816;9.420;2023-05-10T12:56:36;98503.25;;;16.09;61.96
48792;BME280;34587;48.816;9.420;2023-05-10T12:59:02;98506.06;;;16.25;61.03
48792;BME280;34587;48.816;9.420;2023-05-10T13:01:27;98492.69;;;16.31;59.14
48792;BME280;34587;48.816;9.420;2023-05-10T13:03:53;98492.91;;;16.83;59.06
48792;BME280;34587;48.816;9.420;2023-05-10T13:06:18;98499.03;;;16.82;58.79
48792;BME280;34587;48.816;9.420;2023-05-10T13:08:43;98494.25;;;16.73;59.25
48792;BME280;34587;48.816;9.420;2023-05-10T13:11:09;98496.66;;;16.77;58.65
48792;BME280;34587;48.816;9.420;2023-05-10T13:13:34;98495.34;;;17.39;57.61
48792;BME280;34587;48.816;9.420;2023-05-10T13:15:59;98489.63;;;17.14;56.26
48792;BME280;34587;48.816;9.420;2023-05-10T13:18:25;98486.72;;;17.03;57.34
48792;BME280;34587;48.816;9.420;2023-05-10T13:20:51;98491.13;;;16.83;56.76
48792;BME280;34587;48.816;9.420;2023-05-10T13:23:16;98490.28;;;16.83;57.14
48792;BME280;34587;48.816;9.420;2023-05-10T13:25:41;98490.84;;;16.89;58.28
48792;BME280;34587;48.816;9.420;2023-05-10T13:28:07;98485.50;;;16.74;57.26
48792;BME280;34587;48.816;9.420;2023-05-10T13:30:32;98490.97;;;16.49;56.39
48792;BME280;34587;48.816;9.420;2023-05-10T13:32:57;98492.56;;;16.15;58.28
48792;BME280;34587;48.816;9.420;2023-05-10T13:35:23;98491.25;;;16.24;58.36
48792;BME280;34587;48.816;9.420;2023-05-10T13:37:48;98488.22;;;15.75;59.96
48792;BME280;34587;48.816;9.420;2023-05-10T13:40:13;98490.56;;;15.60;64.33
48792;BME280;34587;48.816;9.420;2023-05-10T13:42:40;98480.50;;;15.92;59.92
48792;BME280;34587;48.816;9.420;2023-05-10T13:45:06;98487.72;;;15.66;60.99
48792;BME280;34587;48.816;9.420;2023-05-10T13:47:31;98487.19;;;15.58;60.96
48792;BME280;34587;48.816;9.420;2023-05-10T13:49:57;98475.72;;;15.61;60.69
48792;BME280;34587;48.816;9.420;2023-05-10T13:52:22;98485.53;;;15.56;59.57
48792;BME280;34587;48.816;9.420;2023-05-10T13:54:48;98479.94;;;15.45;59.86
48792;BME280;34587;48.816;9.420;2023-05-10T13:57:13;98479.94;;;16.04;59.71
48792;BME280;34587;48.816;9.420;2023-05-10T13:59:39;98470.06;;;15.92;60.30
48792;BME280;34587;48.816;9.420;2023-05-10T14:02:04;98476.44;;;16.43;59.29
48792;BME280;34587;48.816;9.420;2023-05-10T14:04:30;98469.78;;;16.55;60.02
48792;BME280;34587;48.816;9.420;2023-05-10T14:06:55;98464.44;;;16.94;59.43
48792;BME280;34587;48.816;9.420;2023-05-10T14:09:20;98469.50;;;16.80;59.19
48792;BME280;34587;48.816;9.420;2023-05-10T14:11:46;98462.47;;;17.16;56.79
48792;BME280;34587;48.816;9.420;2023-05-10T14:14:12;98456.75;;;17.60;55.84
48792;BME280;34587;48.816;9.420;2023-05-10T14:16:41;98450.72;;;17.58;55.89
48792;BME280;34587;48.816;9.420;2023-05-10T14:19:06;98459.13;;;17.65;56.18
48792;BME280;34587;48.816;9.420;2023-05-10T14:21:31;98453.63;;;17.87;54.89
48792;BME280;34587;48.816;9.420;2023-05-10T14:23:57;98457.69;;;17.42;54.76
48792;BME280;34587;48.816;9.420;2023-05-10T14:26:22;98455.38;;;17.18;56.50
48792;BME280;34587;48.816;9.420;2023-05-10T14:28:47;98453.91;;;17.65;55.62
48792;BME280;34587;48.816;9.420;2023-05-10T14:31:13;98457.06;;;17.19;55.93
48792;BME280;34587;48.816;9.420;2023-05-10T14:33:39;98456.09;;;17.22;59.15
48792;BME280;34587;48.816;9.420;2023-05-10T14:36:05;98457.59;;;17.09;56.37
48792;BME280;34587;48.816;9.420;2023-05-10T14:38:31;98463.38;;;16.98;55.49
48792;BME280;34587;48.816;9.420;2023-05-10T14:40:56;98451.69;;;17.23;56.92
48792;BME280;34587;48.816;9.420;2023-05-10T14:43:22;98462.47;;;17.16;57.35
48792;BME280;34587;48.816;9.420;2023-05-10T14:45:47;98456.16;;;17.03;56.89
48792;BME280;34587;48.816;9.420;2023-05-10T14:48:13;98453.31;;;17.08;56.56
48792;BME280;34587;48.816;9.420;2023-05-10T14:50:41;98455.34;;;16.84;56.83
48792;BME280;34587;48.816;9.420;2023-05-10T14:53:06;98467.19;;;16.91;56.43
48792;BME280;34587;48.816;9.420;2023-05-10T14:55:32;98461.88;;;16.75;56.77
48792;BME280;34587;48.816;9.420;2023-05-10T14:57:57;98468.66;;;16.60;56.64
48792;BME280;34587;48.816;9.420;2023-05-10T15:00:23;98462.56;;;16.79;58.22
48792;BME280;34587;48.816;9.420;2023-05-10T15:02:48;98452.38;;;16.73;56.83
48792;BME280;34587;48.816;9.420;2023-05-10T15:05:14;98453.56;;;17.02;58.36
48792;BME280;34587;48.816;9.420;2023-05-10T15:07:39;98458.38;;;17.11;55.28
48792;BME280;34587;48.816;9.420;2023-05-10T15:10:05;98460.00;;;17.13;55.00
48792;BME280;34587;48.816;9.420;2023-05-10T15:12:31;98457.50;;;16.38;57.36
48792;BME280;34587;48.816;9.420;2023-05-10T15:14:56;98463.56;;;16.57;56.75
48792;BME280;34587;48.816;9.420;2023-05-10T15:17:22;98464.56;;;16.36;55.85
48792;BME280;34587;48.816;9.420;2023-05-10T15:19:47;98454.72;;;16.79;57.09
48792;BME280;34587;48.816;9.420;2023-05-10T15:22:14;98460.72;;;16.81;57.05
48792;BME280;34587;48.816;9.420;2023-05-10T15:24:39;98457.03;;;16.66;55.81
48792;BME280;34587;48.816;9.420;2023-05-10T15:27:04;98448.44;;;17.00;57.43
48792;BME280;34587;48.816;9.420;2023-05-10T15:29:30;98455.84;;;17.09;55.19
48792;BME280;34587;48.816;9.420;2023-05-10T15:31:56;98462.22;;;17.04;54.28
48792;BME280;34587;48.816;9.420;2023-05-10T15:34:21;98457.84;;;17.39;54.56
48792;BME280;34587;48.816;9.420;2023-05-10T15:36:47;98454.28;;;17.05;56.36
48792;BME280;34587;48.816;9.420;2023-05-10T15:39:13;98461.81;;;16.94;56.16
48792;BME280;34587;48.816;9.420;2023-05-10T15:41:38;98465.06;;;16.99;55.17
48792;BME280;34587;48.816;9.420;2023-05-10T15:44:03;98464.88;;;16.85;55.38
48792;BME280;34587;48.816;9.420;2023-05-10T15:46:29;98462.44;;;16.99;54.48
48792;BME280;34587;48.816;9.420;2023-05-10T15:48:56;98466.94;;;17.32;56.29
48792;BME280;34587;48.816;9.420;2023-05-10T15:51:22;98467.94;;;17.29;54.76
48792;BME280;34587;48.816;9.420;2023-05-10T15:53:47;98469.53;;;17.14;56.38
48792;BME280;34587;48.816;9.420;2023-05-10T15:56:12;98463.81;;;16.89;56.08
48792;BME280;34587;48.816;9.420;2023-05-10T15:58:39;98475.22;;;17.05;55.47
48792;BME280;34587;48.816;9.420;2023-05-10T16:01:04;98481.22;;;16.90;55.19
48792;BME280;34587;48.816;9.420;2023-05-10T16:03:30;98472.94;;;16.61;55.60
48792;BME280;34587;48.816;9.420;2023-05-10T16:05:56;98467.50;;;16.85;57.77
48792;BME280;34587;48.816;9.420;2023-05-10T16:08:21;98477.03;;;16.67;56.87
48792;BME280;34587;48.816;9.420;2023-05-10T16:10:48;98478.28;;;16.79;55.63
48792;BME280;34587;48.816;9.420;2023-05-10T16:13:13;98476.91;;;16.70;57.38
48792;BME280;34587;48.816;9.420;2023-05-10T16:15:39;98481.50;;;16.65;57.33
48792;BME280;34587;48.816;9.420;2023-05-10T16:18:06;98481.22;;;16.52;56.24
48792;BME280;34587;48.816;9.420;2023-05-10T16:20:31;98481.84;;;16.57;58.13
48792;BME280;34587;48.816;9.420;2023-05-10T16:23:02;98482.22;;;16.12;57.41
48792;BME280;34587;48.816;9.420;2023-05-10T16:25:27;98487.59;;;16.28;57.35
48792;BME280;34587;48.816;9.420;2023-05-10T16:27:53;98483.09;;;16.50;56.46
48792;BME280;34587;48.816;9.420;2023-05-10T16:30:18;98488.75;;;16.41;57.09
48792;BME280;34587;48.816;9.420;2023-05-10T16:32:43;98490.72;;;16.36;58.12
48792;BME280;34587;48.816;9.420;2023-05-10T16:35:08;98493.66;;;16.28;57.57
48792;BME280;34587;48.816;9.420;2023-05-10T16:37:34;98483.94;;;16.51;57.13
48792;BME280;34587;48.816;9.420;2023-05-10T16:39:59;98487.94;;;16.39;58.35
48792;BME280;34587;48.816;9.420;2023-05-10T16:42:26;98498.16;;;15.87;58.23
48792;BME280;34587;48.816;9.420;2023-05-10T16:44:53;98501.69;;;15.86;58.32
48792;BME280;34587;48.816;9.420;2023-05-10T16:47:18;98493.63;;;15.90;59.09
48792;BME280;34587;48.816;9.420;2023-05-10T16:49:43;98494.50;;;16.10;59.51
48792;BME280;34587;48.816;9.420;2023-05-10T16:52:09;98488.75;;;16.41;57.89
48792;BME280;34587;48.816;9.420;2023-05-10T16:54:34;98494.66;;;16.07;58.27
48792;BME280;34587;48.816;9.420;2023-05-10T16:56:59;98502.56;;;16.05;60.35
48792;BME280;34587;48.816;9.420;2023-05-10T16:59:26;98492.81;;;16.28;60.01
48792;BME280;34587;48.816;9.420;2023-05-10T17:01:51;98503.22;;;16.10;59.70
48792;BME280;34587;48.816;9.420;2023-05-10T17:04:17;98495.72;;;16.03;59.58
48792;BME280;34587;48.816;9.420;2023-05-10T17:06:43;98494.34;;;15.94;59.70
48792;BME280;34587;48.816;9.420;2023-05-10T17:09:08;98498.88;;;16.09;59.51
48792;BME280;34587;48.816;9.420;2023-05-10T17:11:33;98499.28;;;16.00;60.62
48792;BME280;34587;48.816;9.420;2023-05-10T17:13:59;98499.69;;;16.11;60.81
48792;BME280;34587;48.816;9.420;2023-05-10T17:16:25;98501.56;;;16.08;59.51
48792;BME280;34587;48.816;9.420;2023-05-10T17:18:51;98506.63;;;15.92;59.20
48792;BME280;34587;48.816;9.420;2023-05-10T17:21:16;98504.94;;;15.91;58.73
48792;BME280;34587;48.816;9.420;2023-05-10T17:23:41;98510.31;;;15.88;59.61